sensor_id;sensor_type;location;lat;lon;timestamp;P1;durP1;ratioP1;P2;durP2;ratioP2
26600;SDS011;14241;49.260;10.496;2022-11-20T00:00:23;27.77;;;22.90;;
26600;SDS011;14241;49.260;10.496;2022-11-20T00:02:48;29.80;;;22.70;;
26600;SDS011;14241;49.260;10.496;2022-11-20T00:05:13;27.47;;;21.67;;
26600;SDS011;14241;49.260;10.496;2022-11-20T00:07:39;29.98;;;23.58;;
26600;SDS011;14241;49.260;10.496;2022-11-20T00:10:04;27.48;;;22.75;;
26600;SDS011;14241;49.260;10.496;2022-11-20T00:12:29;27.10;;;21.88;;
26600;SDS011;14241;49.260;10.496;2022-11-20T00:14:55;25.98;;;21.45;;
26600;SDS011;14241;49.260;10.496;2022-11-20T00:17:20;29.42;;;22.20;;
26600;SDS011;14241;49.260;10.496;2022-11-20T00:19:45;25.40;;;21.87;;
26600;SDS011;14241;49.260;10.496;2022-11-20T00:22:10;27.17;;;22.70;;
26600;SDS011;14241;49.260;10.496;2022-11-20T00:24:36;25.58;;;20.90;;
26600;SDS011;14241;49.260;10.496;2022-11-20T00:27:01;26.15;;;21.60;;
26600;SDS011;14241;49.260;10.496;2022-11-20T00:29:26;27.97;;;22.87;;
26600;SDS011;14241;49.260;10.496;2022-11-20T00:31:51;28.00;;;22.75;;
26600;SDS011;14241;49.260;10.496;2022-11-20T00:34:16;29.37;;;23.80;;
26600;SDS011;14241;49.260;10.496;2022-11-20T00:36:42;28.08;;;22.35;;
26600;SDS011;14241;49.260;10.496;2022-11-20T00:39:07;27.67;;;22.47;;
26600;SDS011;14241;49.260;10.496;2022-11-20T00:41:32;29.25;;;23.10;;
26600;SDS011;14241;49.260;10.496;2022-11-20T00:43:57;29.70;;;23.00;;
26600;SDS011;14241;49.260;10.496;2022-11-20T00:46:24;26.63;;;22.23;;
26600;SDS011;14241;49.260;10.496;2022-11-20T00:48:50;27.73;;;22.00;;
26600;SDS011;14241;49.260;10.496;2022-11-20T00:51:16;27.40;;;22.88;;
26600;SDS011;14241;49.260;10.496;2022-11-20T00:53:41;27.38;;;22.00;;
26600;SDS011;14241;49.260;10.496;2022-11-20T00:56:09;29.20;;;22.83;;
26600;SDS011;14241;49.260;10.496;2022-11-20T00:58:35;28.55;;;22.45;;
26600;SDS011;14241;49.260;10.496;2022-11-20T01:01:01;27.30;;;21.92;;
26600;SDS011;14241;49.260;10.496;2022-11-20T01:03:27;27.10;;;21.45;;
26600;SDS011;14241;49.260;10.496;2022-11-20T01:05:52;25.08;;;21.13;;
26600;SDS011;14241;49.260;10.496;2022-11-20T01:08:17;26.50;;;20.80;;
26600;SDS011;14241;49.260;10.496;2022-11-20T01:10:43;25.07;;;20.73;;
26600;SDS011;14241;49.260;10.496;2022-11-20T01:13:08;24.38;;;19.95;;
26600;SDS011;14241;49.260;10.496;2022-11-20T01:15:52;22.85;;;19.08;;
26600;SDS011;14241;49.260;10.496;2022-11-20T01:18:17;25.00;;;20.83;;
26600;SDS011;14241;49.260;10.496;2022-11-20T01:20:42;22.13;;;19.00;;
26600;SDS011;14241;49.260;10.496;2022-11-20T01:23:07;26.20;;;20.70;;
26600;SDS011;14241;49.260;10.496;2022-11-20T01:25:33;24.17;;;20.03;;
26600;SDS011;14241;49.260;10.496;2022-11-20T01:27:59;23.33;;;20.38;;
26600;SDS011;14241;49.260;10.496;2022-11-20T01:30:24;27.40;;;21.27;;
26600;SDS011;14241;49.260;10.496;2022-11-20T01:32:49;27.40;;;22.03;;
26600;SDS011;14241;49.260;10.496;2022-11-20T01:35:14;27.80;;;21.75;;
26600;SDS011;14241;49.260;10.496;2022-11-20T01:37:39;24.95;;;20.60;;
26600;SDS011;14241;49.260;10.496;2022-11-20T01:40:05;25.37;;;21.00;;
26600;SDS011;14241;49.260;10.496;2022-11-20T01:42:30;24.02;;;19.58;;
26600;SDS011;14241;49.260;10.496;2022-11-20T01:47:58;25.83;;;19.45;;
26600;SDS011;14241;49.260;10.496;2022-11-20T01:50:24;26.67;;;21.00;;
26600;SDS011;14241;49.260;10.496;2022-11-20T01:55:20;25.73;;;21.60;;
26600;SDS011;14241;49.260;10.496;2022-11-20T01:57:46;25.48;;;20.70;;
26600;SDS011;14241;49.260;10.496;2022-11-20T02:00:13;24.75;;;20.67;;
26600;SDS011;14241;49.260;10.496;2022-11-20T02:02:39;27.10;;;21.80;;
26600;SDS011;14241;49.260;10.496;2022-11-20T02:05:12;29.45;;;20.92;;
26600;SDS011;14241;49.260;10.496;2022-11-20T02:07:39;26.38;;;21.38;;
26600;SDS011;14241;49.260;10.496;2022-11-20T02:10:05;27.60;;;21.65;;
26600;SDS011;14241;49.260;10.496;2022-11-20T02:12:30;27.25;;;21.10;;
26600;SDS011;14241;49.260;10.496;2022-11-20T02:15:14;29.35;;;22.20;;
26600;SDS011;14241;49.260;10.496;2022-11-20T02:17:39;29.08;;;23.00;;
26600;SDS011;14241;49.260;10.496;2022-11-20T02:20:05;26.87;;;21.17;;
26600;SDS011;14241;49.260;10.496;2022-11-20T02:22:34;25.58;;;21.20;;
26600;SDS011;14241;49.260;10.496;2022-11-20T02:25:03;26.35;;;21.25;;
26600;SDS011;14241;49.260;10.496;2022-11-20T02:27:29;26.10;;;20.88;;
26600;SDS011;14241;49.260;10.496;2022-11-20T02:29:56;26.20;;;20.58;;
26600;SDS011;14241;49.260;10.496;2022-11-20T02:32:23;24.17;;;19.58;;
26600;SDS011;14241;49.260;10.496;2022-11-20T02:34:50;25.48;;;20.60;;
26600;SDS011;14241;49.260;10.496;2022-11-20T02:37:15;25.00;;;20.10;;
26600;SDS011;14241;49.260;10.496;2022-11-20T02:39:40;26.02;;;20.98;;
26600;SDS011;14241;49.260;10.496;2022-11-20T02:42:06;25.63;;;20.27;;
26600;SDS011;14241;49.260;10.496;2022-11-20T02:44:31;26.25;;;20.95;;
26600;SDS011;14241;49.260;10.496;2022-11-20T02:46:57;24.97;;;20.30;;
26600;SDS011;14241;49.260;10.496;2022-11-20T02:49:23;25.75;;;19.60;;
26600;SDS011;14241;49.260;10.496;2022-11-20T02:51:48;23.67;;;19.45;;
26600;SDS011;14241;49.260;10.496;2022-11-20T02:54:14;23.80;;;19.52;;
26600;SDS011;14241;49.260;10.496;2022-11-20T02:56:39;25.88;;;20.55;;
26600;SDS011;14241;49.260;10.496;2022-11-20T02:59:04;23.42;;;19.67;;
26600;SDS011;14241;49.260;10.496;2022-11-20T03:01:29;25.17;;;20.00;;
26600;SDS011;14241;49.260;10.496;2022-11-20T03:03:54;23.58;;;18.30;;
26600;SDS011;14241;49.260;10.496;2022-11-20T03:06:21;23.27;;;19.65;;
26600;SDS011;14241;49.260;10.496;2022-11-20T03:08:46;24.45;;;19.45;;
26600;SDS011;14241;49.260;10.496;2022-11-20T03:11:11;23.20;;;18.75;;
26600;SDS011;14241;49.260;10.496;2022-11-20T03:13:37;22.38;;;18.17;;
26600;SDS011;14241;49.260;10.496;2022-11-20T03:16:06;21.63;;;17.65;;
26600;SDS011;14241;49.260;10.496;2022-11-20T03:18:31;23.65;;;19.38;;
26600;SDS011;14241;49.260;10.496;2022-11-20T03:20:57;24.63;;;19.23;;
26600;SDS011;14241;49.260;10.496;2022-11-20T03:23:22;22.40;;;18.05;;
26600;SDS011;14241;49.260;10.496;2022-11-20T03:25:47;24.17;;;19.67;;
26600;SDS011;14241;49.260;10.496;2022-11-20T03:28:13;25.00;;;19.42;;
26600;SDS011;14241;49.260;10.496;2022-11-20T03:30:38;24.67;;;19.60;;
26600;SDS011;14241;49.260;10.496;2022-11-20T03:33:03;25.33;;;19.38;;
26600;SDS011;14241;49.260;10.496;2022-11-20T03:35:28;24.00;;;18.80;;
26600;SDS011;14241;49.260;10.496;2022-11-20T03:37:53;23.98;;;19.02;;
26600;SDS011;14241;49.260;10.496;2022-11-20T03:40:19;24.07;;;19.73;;
26600;SDS011;14241;49.260;10.496;2022-11-20T03:42:44;23.65;;;18.23;;
26600;SDS011;14241;49.260;10.496;2022-11-20T03:45:14;23.92;;;18.60;;
26600;SDS011;14241;49.260;10.496;2022-11-20T03:47:39;24.05;;;18.38;;
26600;SDS011;14241;49.260;10.496;2022-11-20T03:50:04;25.50;;;18.83;;
26600;SDS011;14241;49.260;10.496;2022-11-20T03:52:30;25.20;;;19.77;;
26600;SDS011;14241;49.260;10.496;2022-11-20T03:54:55;26.47;;;19.00;;
26600;SDS011;14241;49.260;10.496;2022-11-20T03:57:20;24.50;;;19.25;;
26600;SDS011;14241;49.260;10.496;2022-11-20T03:59:45;24.05;;;18.25;;
26600;SDS011;14241;49.260;10.496;2022-11-20T04:02:11;23.17;;;18.43;;
26600;SDS011;14241;49.260;10.496;2022-11-20T04:04:36;25.35;;;19.05;;
26600;SDS011;14241;49.260;10.496;2022-11-20T04:07:02;28.40;;;21.83;;
26600;SDS011;14241;49.260;10.496;2022-11-20T04:09:27;28.90;;;25.33;;
26600;SDS011;14241;49.260;10.496;2022-11-20T04:11:52;31.80;;;27.60;;
26600;SDS011;14241;49.260;10.496;2022-11-20T04:14:17;28.17;;;24.10;;
26600;SDS011;14241;49.260;10.496;2022-11-20T04:16:43;28.30;;;21.02;;
26600;SDS011;14241;49.260;10.496;2022-11-20T04:19:11;28.83;;;20.75;;
26600;SDS011;14241;49.260;10.496;2022-11-20T04:21:37;26.48;;;19.90;;
26600;SDS011;14241;49.260;10.496;2022-11-20T04:24:02;27.85;;;20.08;;
26600;SDS011;14241;49.260;10.496;2022-11-20T04:26:28;27.45;;;20.60;;
26600;SDS011;14241;49.260;10.496;2022-11-20T04:28:53;24.77;;;19.60;;
26600;SDS011;14241;49.260;10.496;2022-11-20T04:31:20;27.65;;;19.85;;
26600;SDS011;14241;49.260;10.496;2022-11-20T04:33:46;28.25;;;19.85;;
26600;SDS011;14241;49.260;10.496;2022-11-20T04:36:16;29.67;;;20.83;;
26600;SDS011;14241;49.260;10.496;2022-11-20T04:38:41;29.08;;;21.13;;
26600;SDS011;14241;49.260;10.496;2022-11-20T04:41:08;28.73;;;21.05;;
26600;SDS011;14241;49.260;10.496;2022-11-20T04:43:35;31.85;;;21.85;;
26600;SDS011;14241;49.260;10.496;2022-11-20T04:46:00;31.92;;;22.08;;
26600;SDS011;14241;49.260;10.496;2022-11-20T04:48:26;30.27;;;21.90;;
26600;SDS011;14241;49.260;10.496;2022-11-20T04:50:52;33.42;;;23.00;;
26600;SDS011;14241;49.260;10.496;2022-11-20T04:53:18;31.92;;;21.38;;
26600;SDS011;14241;49.260;10.496;2022-11-20T04:55:43;30.63;;;20.45;;
26600;SDS011;14241;49.260;10.496;2022-11-20T04:58:08;31.13;;;20.63;;
26600;SDS011;14241;49.260;10.496;2022-11-20T05:00:34;36.67;;;23.33;;
26600;SDS011;14241;49.260;10.496;2022-11-20T05:03:00;36.53;;;24.33;;
26600;SDS011;14241;49.260;10.496;2022-11-20T05:05:25;38.90;;;25.23;;
26600;SDS011;14241;49.260;10.496;2022-11-20T05:07:50;38.40;;;25.23;;
26600;SDS011;14241;49.260;10.496;2022-11-20T05:10:16;42.58;;;25.95;;
26600;SDS011;14241;49.260;10.496;2022-11-20T05:12:41;40.13;;;23.70;;
26600;SDS011;14241;49.260;10.496;2022-11-20T05:15:06;42.05;;;25.02;;
26600;SDS011;14241;49.260;10.496;2022-11-20T05:17:31;39.97;;;25.38;;
26600;SDS011;14241;49.260;10.496;2022-11-20T05:19:57;36.53;;;24.97;;
26600;SDS011;14241;49.260;10.496;2022-11-20T05:22:22;37.70;;;25.45;;
26600;SDS011;14241;49.260;10.496;2022-11-20T05:24:47;40.85;;;25.67;;
26600;SDS011;14241;49.260;10.496;2022-11-20T05:27:12;43.30;;;26.15;;
26600;SDS011;14241;49.260;10.496;2022-11-20T05:29:38;39.53;;;25.30;;
26600;SDS011;14241;49.260;10.496;2022-11-20T05:32:03;37.42;;;24.55;;
26600;SDS011;14241;49.260;10.496;2022-11-20T05:34:30;41.60;;;28.20;;
26600;SDS011;14241;49.260;10.496;2022-11-20T05:36:55;42.63;;;28.35;;
26600;SDS011;14241;49.260;10.496;2022-11-20T05:39:21;51.23;;;29.67;;
26600;SDS011;14241;49.260;10.496;2022-11-20T05:41:46;45.72;;;28.25;;
26600;SDS011;14241;49.260;10.496;2022-11-20T05:44:12;47.65;;;28.02;;
26600;SDS011;14241;49.260;10.496;2022-11-20T05:46:38;46.35;;;27.38;;
26600;SDS011;14241;49.260;10.496;2022-11-20T05:49:03;45.10;;;27.33;;
26600;SDS011;14241;49.260;10.496;2022-11-20T05:51:28;43.80;;;26.48;;
26600;SDS011;14241;49.260;10.496;2022-11-20T05:53:55;47.40;;;28.70;;
26600;SDS011;14241;49.260;10.496;2022-11-20T05:56:21;49.35;;;28.27;;
26600;SDS011;14241;49.260;10.496;2022-11-20T05:58:46;46.13;;;27.70;;
26600;SDS011;14241;49.260;10.496;2022-11-20T06:01:22;48.25;;;29.20;;
26600;SDS011;14241;49.260;10.496;2022-11-20T06:03:48;50.97;;;28.92;;
26600;SDS011;14241;49.260;10.496;2022-11-20T06:06:15;46.40;;;29.25;;
26600;SDS011;14241;49.260;10.496;2022-11-20T06:08:40;47.75;;;29.05;;
26600;SDS011;14241;49.260;10.496;2022-11-20T06:11:09;51.58;;;29.10;;
26600;SDS011;14241;49.260;10.496;2022-11-20T06:13:35;49.45;;;29.08;;
26600;SDS011;14241;49.260;10.496;2022-11-20T06:16:00;52.35;;;29.30;;
26600;SDS011;14241;49.260;10.496;2022-11-20T06:18:28;40.35;;;26.00;;
26600;SDS011;14241;49.260;10.496;2022-11-20T06:21:07;30.05;;;20.25;;
26600;SDS011;14241;49.260;10.496;2022-11-20T06:23:33;31.90;;;21.67;;
26600;SDS011;14241;49.260;10.496;2022-11-20T06:26:02;34.33;;;22.50;;
26600;SDS011;14241;49.260;10.496;2022-11-20T06:28:28;35.08;;;22.67;;
26600;SDS011;14241;49.260;10.496;2022-11-20T06:30:53;37.43;;;24.30;;
26600;SDS011;14241;49.260;10.496;2022-11-20T06:33:18;38.90;;;25.70;;
26600;SDS011;14241;49.260;10.496;2022-11-20T06:35:43;36.33;;;22.35;;
26600;SDS011;14241;49.260;10.496;2022-11-20T06:38:08;38.10;;;22.43;;
26600;SDS011;14241;49.260;10.496;2022-11-20T06:40:34;26.07;;;17.60;;
26600;SDS011;14241;49.260;10.496;2022-11-20T06:42:59;28.13;;;19.27;;
26600;SDS011;14241;49.260;10.496;2022-11-20T06:45:24;29.73;;;20.02;;
26600;SDS011;14241;49.260;10.496;2022-11-20T06:47:49;27.97;;;19.50;;
26600;SDS011;14241;49.260;10.496;2022-11-20T06:50:15;24.30;;;17.50;;
26600;SDS011;14241;49.260;10.496;2022-11-20T06:52:40;27.80;;;19.00;;
26600;SDS011;14241;49.260;10.496;2022-11-20T06:55:05;27.00;;;18.50;;
26600;SDS011;14241;49.260;10.496;2022-11-20T06:57:30;19.60;;;15.10;;
26600;SDS011;14241;49.260;10.496;2022-11-20T06:59:56;26.85;;;19.00;;
26600;SDS011;14241;49.260;10.496;2022-11-20T07:02:21;27.63;;;19.40;;
26600;SDS011;14241;49.260;10.496;2022-11-20T07:04:46;25.55;;;18.63;;
26600;SDS011;14241;49.260;10.496;2022-11-20T07:07:11;29.65;;;17.92;;
26600;SDS011;14241;49.260;10.496;2022-11-20T07:09:37;22.25;;;16.77;;
26600;SDS011;14241;49.260;10.496;2022-11-20T07:12:02;19.63;;;14.77;;
26600;SDS011;14241;49.260;10.496;2022-11-20T07:14:27;21.45;;;15.77;;
26600;SDS011;14241;49.260;10.496;2022-11-20T07:16:52;18.73;;;14.00;;
26600;SDS011;14241;49.260;10.496;2022-11-20T07:19:17;20.15;;;14.43;;
26600;SDS011;14241;49.260;10.496;2022-11-20T07:21:43;19.73;;;14.03;;
26600;SDS011;14241;49.260;10.496;2022-11-20T07:24:08;17.50;;;12.93;;
26600;SDS011;14241;49.260;10.496;2022-11-20T07:26:33;15.95;;;12.20;;
26600;SDS011;14241;49.260;10.496;2022-11-20T07:28:58;14.65;;;12.23;;
26600;SDS011;14241;49.260;10.496;2022-11-20T07:31:24;14.50;;;10.80;;
26600;SDS011;14241;49.260;10.496;2022-11-20T07:33:49;13.25;;;9.45;;
26600;SDS011;14241;49.260;10.496;2022-11-20T07:36:14;9.85;;;8.65;;
26600;SDS011;14241;49.260;10.496;2022-11-20T07:38:39;11.27;;;8.95;;
26600;SDS011;14241;49.260;10.496;2022-11-20T07:41:05;9.80;;;8.80;;
26600;SDS011;14241;49.260;10.496;2022-11-20T07:43:30;10.20;;;8.70;;
26600;SDS011;14241;49.260;10.496;2022-11-20T07:45:56;13.38;;;8.68;;
26600;SDS011;14241;49.260;10.496;2022-11-20T07:48:21;10.13;;;6.68;;
26600;SDS011;14241;49.260;10.496;2022-11-20T07:50:46;8.73;;;6.70;;
26600;SDS011;14241;49.260;10.496;2022-11-20T07:53:12;5.83;;;5.23;;
26600;SDS011;14241;49.260;10.496;2022-11-20T07:55:38;6.85;;;6.15;;
26600;SDS011;14241;49.260;10.496;2022-11-20T07:58:04;5.03;;;4.45;;
26600;SDS011;14241;49.260;10.496;2022-11-20T08:00:29;5.22;;;4.00;;
26600;SDS011;14241;49.260;10.496;2022-11-20T08:02:54;4.55;;;4.15;;
26600;SDS011;14241;49.260;10.496;2022-11-20T08:05:20;4.43;;;3.97;;
26600;SDS011;14241;49.260;10.496;2022-11-20T08:07:45;5.82;;;4.18;;
26600;SDS011;14241;49.260;10.496;2022-11-20T08:10:12;4.57;;;4.10;;
26600;SDS011;14241;49.260;10.496;2022-11-20T08:12:47;4.82;;;3.78;;
26600;SDS011;14241;49.260;10.496;2022-11-20T08:15:31;4.93;;;3.55;;
26600;SDS011;14241;49.260;10.496;2022-11-20T08:18:06;3.55;;;3.25;;
26600;SDS011;14241;49.260;10.496;2022-11-20T08:20:32;3.80;;;3.47;;
26600;SDS011;14241;49.260;10.496;2022-11-20T08:23:01;3.55;;;3.15;;
26600;SDS011;14241;49.260;10.496;2022-11-20T08:25:27;3.42;;;2.90;;
26600;SDS011;14241;49.260;10.496;2022-11-20T08:27:52;5.03;;;3.00;;
26600;SDS011;14241;49.260;10.496;2022-11-20T08:30:18;3.87;;;3.00;;
26600;SDS011;14241;49.260;10.496;2022-11-20T08:32:43;3.53;;;2.65;;
26600;SDS011;14241;49.260;10.496;2022-11-20T08:35:08;2.70;;;2.33;;
26600;SDS011;14241;49.260;10.496;2022-11-20T08:37:33;2.92;;;2.72;;
26600;SDS011;14241;49.260;10.496;2022-11-20T08:39:58;3.53;;;2.60;;
26600;SDS011;14241;49.260;10.496;2022-11-20T08:42:24;2.40;;;2.20;;
26600;SDS011;14241;49.260;10.496;2022-11-20T08:44:49;2.50;;;2.30;;
26600;SDS011;14241;49.260;10.496;2022-11-20T08:47:14;3.33;;;2.13;;
26600;SDS011;14241;49.260;10.496;2022-11-20T08:49:39;2.65;;;2.45;;
26600;SDS011;14241;49.260;10.496;2022-11-20T08:52:04;3.33;;;2.60;;
26600;SDS011;14241;49.260;10.496;2022-11-20T08:54:30;2.60;;;2.38;;
26600;SDS011;14241;49.260;10.496;2022-11-20T08:56:55;2.80;;;2.60;;
26600;SDS011;14241;49.260;10.496;2022-11-20T08:59:21;2.90;;;2.63;;
26600;SDS011;14241;49.260;10.496;2022-11-20T09:01:46;4.38;;;3.15;;
26600;SDS011;14241;49.260;10.496;2022-11-20T09:04:11;3.00;;;2.58;;
26600;SDS011;14241;49.260;10.496;2022-11-20T09:06:39;3.25;;;2.95;;
26600;SDS011;14241;49.260;10.496;2022-11-20T09:09:04;3.23;;;2.93;;
26600;SDS011;14241;49.260;10.496;2022-11-20T09:11:30;3.90;;;3.22;;
26600;SDS011;14241;49.260;10.496;2022-11-20T09:13:55;4.00;;;3.60;;
26600;SDS011;14241;49.260;10.496;2022-11-20T09:16:21;3.53;;;3.23;;
26600;SDS011;14241;49.260;10.496;2022-11-20T09:18:46;3.60;;;3.30;;
26600;SDS011;14241;49.260;10.496;2022-11-20T09:21:12;3.72;;;3.42;;
26600;SDS011;14241;49.260;10.496;2022-11-20T09:23:38;7.28;;;3.80;;
26600;SDS011;14241;49.260;10.496;2022-11-20T09:26:08;3.95;;;3.53;;
26600;SDS011;14241;49.260;10.496;2022-11-20T09:28:34;3.90;;;3.60;;
26600;SDS011;14241;49.260;10.496;2022-11-20T09:30:59;4.03;;;3.63;;
26600;SDS011;14241;49.260;10.496;2022-11-20T09:33:25;4.35;;;3.95;;
26600;SDS011;14241;49.260;10.496;2022-11-20T09:35:50;5.05;;;4.00;;
26600;SDS011;14241;49.260;10.496;2022-11-20T09:38:15;3.73;;;3.43;;
26600;SDS011;14241;49.260;10.496;2022-11-20T09:40:43;4.38;;;3.85;;
26600;SDS011;14241;49.260;10.496;2022-11-20T09:43:18;3.40;;;3.10;;
26600;SDS011;14241;49.260;10.496;2022-11-20T09:48:26;4.47;;;3.97;;
26600;SDS011;14241;49.260;10.496;2022-11-20T09:50:57;4.05;;;3.67;;
26600;SDS011;14241;49.260;10.496;2022-11-20T09:56:08;4.32;;;3.92;;
26600;SDS011;14241;49.260;10.496;2022-11-20T10:01:03;5.28;;;4.78;;
26600;SDS011;14241;49.260;10.496;2022-11-20T10:03:49;4.43;;;4.03;;
26600;SDS011;14241;49.260;10.496;2022-11-20T10:06:17;5.22;;;3.67;;
26600;SDS011;14241;49.260;10.496;2022-11-20T10:08:45;4.45;;;3.22;;
26600;SDS011;14241;49.260;10.496;2022-11-20T10:11:25;5.25;;;3.85;;
26600;SDS011;14241;49.260;10.496;2022-11-20T10:16:53;3.60;;;3.05;;
26600;SDS011;14241;49.260;10.496;2022-11-20T10:19:32;3.40;;;2.97;;
26600;SDS011;14241;49.260;10.496;2022-11-20T10:29:43;3.63;;;3.33;;
26600;SDS011;14241;49.260;10.496;2022-11-20T10:32:18;3.67;;;3.38;;
26600;SDS011;14241;49.260;10.496;2022-11-20T10:34:52;3.92;;;3.15;;
26600;SDS011;14241;49.260;10.496;2022-11-20T10:37:22;4.13;;;3.72;;
26600;SDS011;14241;49.260;10.496;2022-11-20T10:39:54;3.88;;;3.25;;
26600;SDS011;14241;49.260;10.496;2022-11-20T10:42:27;5.18;;;3.58;;
26600;SDS011;14241;49.260;10.496;2022-11-20T10:44:57;3.53;;;3.22;;
26600;SDS011;14241;49.260;10.496;2022-11-20T10:47:26;4.07;;;3.67;;
26600;SDS011;14241;49.260;10.496;2022-11-20T10:49:52;4.07;;;3.67;;
26600;SDS011;14241;49.260;10.496;2022-11-20T11:00:24;4.40;;;4.00;;
26600;SDS011;14241;49.260;10.496;2022-11-20T11:02:53;5.43;;;4.40;;
26600;SDS011;14241;49.260;10.496;2022-11-20T11:08:02;4.88;;;4.38;;
26600;SDS011;14241;49.260;10.496;2022-11-20T11:10:36;4.30;;;3.90;;
26600;SDS011;14241;49.260;10.496;2022-11-20T11:13:06;4.72;;;4.32;;
26600;SDS011;14241;49.260;10.496;2022-11-20T11:15:39;5.22;;;4.65;;
26600;SDS011;14241;49.260;10.496;2022-11-20T11:18:05;5.30;;;4.80;;
26600;SDS011;14241;49.260;10.496;2022-11-20T11:20:33;5.05;;;4.55;;
26600;SDS011;14241;49.260;10.496;2022-11-20T11:22:58;4.32;;;3.92;;
26600;SDS011;14241;49.260;10.496;2022-11-20T11:27:53;5.20;;;4.78;;
26600;SDS011;14241;49.260;10.496;2022-11-20T11:30:21;4.90;;;4.50;;
26600;SDS011;14241;49.260;10.496;2022-11-20T11:32:46;6.15;;;4.97;;
26600;SDS011;14241;49.260;10.496;2022-11-20T11:35:27;5.28;;;4.78;;
26600;SDS011;14241;49.260;10.496;2022-11-20T11:37:54;4.75;;;4.32;;
26600;SDS011;14241;49.260;10.496;2022-11-20T11:40:20;4.88;;;4.47;;
26600;SDS011;14241;49.260;10.496;2022-11-20T11:42:49;5.47;;;4.50;;
26600;SDS011;14241;49.260;10.496;2022-11-20T11:45:15;4.32;;;3.92;;
26600;SDS011;14241;49.260;10.496;2022-11-20T11:55:15;7.25;;;4.07;;
26600;SDS011;14241;49.260;10.496;2022-11-20T12:00:14;3.88;;;3.47;;
26600;SDS011;14241;49.260;10.496;2022-11-20T12:07:43;4.30;;;3.90;;
26600;SDS011;14241;49.260;10.496;2022-11-20T12:12:55;7.40;;;5.50;;
26600;SDS011;14241;49.260;10.496;2022-11-20T12:15:29;4.90;;;4.15;;
26600;SDS011;14241;49.260;10.496;2022-11-20T12:17:54;6.28;;;5.00;;
26600;SDS011;14241;49.260;10.496;2022-11-20T12:20:20;8.60;;;6.63;;
26600;SDS011;14241;49.260;10.496;2022-11-20T12:23:08;8.20;;;7.22;;
26600;SDS011;14241;49.260;10.496;2022-11-20T12:25:35;6.20;;;5.60;;
26600;SDS011;14241;49.260;10.496;2022-11-20T12:30:26;6.37;;;5.70;;
26600;SDS011;14241;49.260;10.496;2022-11-20T12:40:45;8.23;;;7.40;;
26600;SDS011;14241;49.260;10.496;2022-11-20T12:43:21;7.82;;;7.05;;
26600;SDS011;14241;49.260;10.496;2022-11-20T12:56:13;12.43;;;10.65;;
26600;SDS011;14241;49.260;10.496;2022-11-20T13:04:16;9.93;;;8.90;;
26600;SDS011;14241;49.260;10.496;2022-11-20T13:06:43;10.27;;;8.68;;
26600;SDS011;14241;49.260;10.496;2022-11-20T13:09:10;7.95;;;7.15;;
26600;SDS011;14241;49.260;10.496;2022-11-20T13:11:41;9.88;;;7.65;;
26600;SDS011;14241;49.260;10.496;2022-11-20T13:16:41;8.18;;;7.25;;
26600;SDS011;14241;49.260;10.496;2022-11-20T13:19:15;8.80;;;7.90;;
26600;SDS011;14241;49.260;10.496;2022-11-20T13:21:44;8.63;;;6.82;;
26600;SDS011;14241;49.260;10.496;2022-11-20T13:32:32;9.48;;;6.93;;
26600;SDS011;14241;49.260;10.496;2022-11-20T13:40:04;7.15;;;6.45;;
26600;SDS011;14241;49.260;10.496;2022-11-20T13:42:29;8.48;;;6.80;;
26600;SDS011;14241;49.260;10.496;2022-11-20T13:44:55;8.63;;;6.35;;
26600;SDS011;14241;49.260;10.496;2022-11-20T13:47:26;8.50;;;7.15;;
26600;SDS011;14241;49.260;10.496;2022-11-20T13:49:52;9.02;;;6.85;;
26600;SDS011;14241;49.260;10.496;2022-11-20T13:52:37;11.43;;;7.72;;
26600;SDS011;14241;49.260;10.496;2022-11-20T13:55:49;12.32;;;6.57;;
26600;SDS011;14241;49.260;10.496;2022-11-20T13:58:01;7.45;;;6.13;;
26600;SDS011;14241;49.260;10.496;2022-11-20T14:00:29;9.75;;;6.32;;
26600;SDS011;14241;49.260;10.496;2022-11-20T14:05:56;7.30;;;6.40;;
26600;SDS011;14241;49.260;10.496;2022-11-20T14:08:35;11.23;;;6.85;;
26600;SDS011;14241;49.260;10.496;2022-11-20T14:11:03;7.88;;;7.07;;
26600;SDS011;14241;49.260;10.496;2022-11-20T14:13:28;9.95;;;6.68;;
26600;SDS011;14241;49.260;10.496;2022-11-20T14:15:56;8.10;;;6.88;;
26600;SDS011;14241;49.260;10.496;2022-11-20T14:18:21;9.07;;;6.65;;
26600;SDS011;14241;49.260;10.496;2022-11-20T14:20:46;7.28;;;6.07;;
26600;SDS011;14241;49.260;10.496;2022-11-20T14:23:12;9.93;;;7.10;;
26600;SDS011;14241;49.260;10.496;2022-11-20T14:25:41;7.60;;;6.72;;
26600;SDS011;14241;49.260;10.496;2022-11-20T14:28:10;8.52;;;6.93;;
26600;SDS011;14241;49.260;10.496;2022-11-20T14:33:02;7.80;;;5.53;;
26600;SDS011;14241;49.260;10.496;2022-11-20T14:35:34;7.63;;;5.30;;
26600;SDS011;14241;49.260;10.496;2022-11-20T14:38:00;7.03;;;5.15;;
26600;SDS011;14241;49.260;10.496;2022-11-20T14:40:27;5.90;;;4.97;;
26600;SDS011;14241;49.260;10.496;2022-11-20T14:42:52;9.80;;;5.53;;
26600;SDS011;14241;49.260;10.496;2022-11-20T14:45:18;6.00;;;5.40;;
26600;SDS011;14241;49.260;10.496;2022-11-20T14:47:44;7.63;;;5.90;;
26600;SDS011;14241;49.260;10.496;2022-11-20T14:50:14;6.65;;;5.90;;
26600;SDS011;14241;49.260;10.496;2022-11-20T14:52:40;8.55;;;5.90;;
26600;SDS011;14241;49.260;10.496;2022-11-20T14:55:14;7.43;;;5.68;;
26600;SDS011;14241;49.260;10.496;2022-11-20T14:57:54;8.50;;;6.13;;
26600;SDS011;14241;49.260;10.496;2022-11-20T15:00:21;9.90;;;6.35;;
26600;SDS011;14241;49.260;10.496;2022-11-20T15:02:50;7.88;;;5.32;;
26600;SDS011;14241;49.260;10.496;2022-11-20T15:05:16;6.85;;;5.00;;
26600;SDS011;14241;49.260;10.496;2022-11-20T15:07:43;10.43;;;5.30;;
26600;SDS011;14241;49.260;10.496;2022-11-20T15:12:48;5.60;;;4.70;;
26600;SDS011;14241;49.260;10.496;2022-11-20T15:15:15;6.78;;;5.05;;
26600;SDS011;14241;49.260;10.496;2022-11-20T15:17:41;5.75;;;4.63;;
26600;SDS011;14241;49.260;10.496;2022-11-20T15:20:13;7.97;;;5.00;;
26600;SDS011;14241;49.260;10.496;2022-11-20T15:22:39;6.65;;;5.70;;
26600;SDS011;14241;49.260;10.496;2022-11-20T15:25:11;7.87;;;6.10;;
26600;SDS011;14241;49.260;10.496;2022-11-20T15:27:36;10.27;;;5.35;;
26600;SDS011;14241;49.260;10.496;2022-11-20T15:30:01;10.25;;;5.10;;
26600;SDS011;14241;49.260;10.496;2022-11-20T15:32:26;10.35;;;4.85;;
26600;SDS011;14241;49.260;10.496;2022-11-20T15:34:51;12.17;;;5.80;;
26600;SDS011;14241;49.260;10.496;2022-11-20T15:47:47;7.25;;;4.22;;
26600;SDS011;14241;49.260;10.496;2022-11-20T15:50:13;7.87;;;4.70;;
26600;SDS011;14241;49.260;10.496;2022-11-20T15:52:42;8.77;;;5.07;;
26600;SDS011;14241;49.260;10.496;2022-11-20T15:55:10;7.40;;;5.10;;
26600;SDS011;14241;49.260;10.496;2022-11-20T15:57:35;11.10;;;4.90;;
26600;SDS011;14241;49.260;10.496;2022-11-20T16:00:00;9.40;;;4.95;;
26600;SDS011;14241;49.260;10.496;2022-11-20T16:02:26;11.93;;;4.18;;
26600;SDS011;14241;49.260;10.496;2022-11-20T16:04:51;9.17;;;4.30;;
26600;SDS011;14241;49.260;10.496;2022-11-20T16:07:16;8.57;;;3.75;;
26600;SDS011;14241;49.260;10.496;2022-11-20T16:09:41;5.90;;;3.45;;
26600;SDS011;14241;49.260;10.496;2022-11-20T16:12:08;4.43;;;2.65;;
26600;SDS011;14241;49.260;10.496;2022-11-20T16:14:33;10.43;;;3.00;;